createdAt,value
2023-04-07T00:00:09.045Z,8.93
2023-04-07T00:03:26.268Z,8.82
2023-04-07T00:06:37.704Z,8.15
2023-04-07T00:09:42.285Z,8.25
2023-04-07T00:12:45.120Z,8.98
2023-04-07T00:15:50.622Z,8.45
2023-04-07T00:18:52.353Z,8.38
2023-04-07T00:21:56.957Z,8.23
2023-04-07T00:25:01.710Z,8.07
2023-04-07T00:28:06.475Z,8.35
2023-04-07T00:31:11.427Z,8.17
2023-04-07T00:34:37.436Z,7.75
2023-04-07T00:37:43.006Z,7.90
2023-04-07T00:40:46.018Z,7.90
2023-04-07T00:43:50.116Z,6.93
2023-04-07T00:46:52.165Z,4.22
2023-04-07T00:49:54.541Z,3.83
2023-04-07T00:52:59.697Z,3.20
2023-04-07T00:56:01.686Z,2.90
2023-04-07T00:59:18.970Z,2.90
2023-04-07T01:02:55.738Z,2.40
2023-04-07T01:06:09.577Z,2.47
2023-04-07T01:13:46.904Z,2.40
2023-04-07T01:17:23.206Z,2.08
2023-04-07T01:20:41.916Z,2.22
2023-04-07T01:24:24.672Z,2.03
2023-04-07T01:28:03.679Z,2.30
2023-04-07T01:31:07.101Z,2.30
2023-04-07T01:34:22.730Z,2.20
2023-04-07T01:37:34.509Z,2.57
2023-04-07T01:40:41.975Z,2.65
2023-04-07T01:47:08.900Z,2.90
2023-04-07T01:50:13.258Z,2.50
2023-04-07T01:53:19.153Z,2.78
2023-04-07T01:56:23.491Z,2.95
2023-04-07T01:59:34.822Z,2.93
2023-04-07T02:02:47.218Z,3.20
2023-04-07T02:05:54.557Z,3.60
2023-04-07T02:09:20.517Z,3.40
2023-04-07T02:12:33.796Z,3.53
2023-04-07T02:15:53.695Z,3.47
2023-04-07T02:19:05.886Z,3.33
2023-04-07T02:22:10.425Z,3.40
2023-04-07T02:25:32.852Z,3.67
2023-04-07T02:28:39.598Z,3.30
2023-04-07T02:31:42.958Z,3.60
2023-04-07T02:38:04.861Z,3.70
2023-04-07T02:41:16.181Z,3.90
2023-04-07T02:44:21.766Z,4.25
2023-04-07T02:47:26.019Z,4.00
2023-04-07T02:50:31.496Z,4.60
2023-04-07T02:53:33.267Z,4.05
2023-04-07T02:56:38.090Z,4.32
2023-04-07T02:59:43.343Z,4.10
2023-04-07T03:02:48.358Z,4.20
2023-04-07T03:09:21.410Z,3.80
2023-04-07T03:12:35.884Z,4.47
2023-04-07T03:15:40.897Z,4.35
2023-04-07T03:18:46.169Z,4.13
2023-04-07T03:21:50.582Z,4.40
2023-04-07T03:24:55.685Z,4.22
2023-04-07T03:28:04.035Z,3.88
2023-04-07T03:31:12.969Z,3.60
2023-04-07T03:34:16.570Z,3.40
2023-04-07T03:37:29.031Z,3.83
2023-04-07T03:40:32.999Z,3.97
2023-04-07T03:43:44.592Z,3.63
2023-04-07T03:46:51.393Z,3.47
2023-04-07T03:50:00.200Z,3.90
2023-04-07T03:53:07.786Z,3.70
2023-04-07T03:56:20.621Z,3.67
2023-04-07T03:59:28.328Z,3.90
2023-04-07T04:02:43.343Z,3.85
2023-04-07T04:05:52.604Z,3.57
2023-04-07T04:09:04.227Z,3.90
2023-04-07T04:12:10.142Z,3.85
2023-04-07T04:15:29.975Z,3.73
2023-04-07T04:18:37.272Z,3.83
2023-04-07T04:21:44.228Z,4.10
2023-04-07T04:24:47.422Z,3.70
2023-04-07T04:27:52.362Z,3.95
2023-04-07T04:31:02.876Z,4.30
2023-04-07T04:34:28.461Z,3.60
2023-04-07T04:37:35.207Z,3.90
2023-04-07T04:41:01.708Z,3.80
2023-04-07T04:44:25.015Z,3.90
2023-04-07T04:51:13.290Z,3.95
2023-04-07T04:54:25.283Z,4.38
2023-04-07T04:57:32.219Z,4.47
2023-04-07T05:00:38.214Z,4.13
2023-04-07T05:07:04.621Z,4.25
2023-04-07T05:10:11.989Z,4.57
2023-04-07T05:13:21.869Z,4.07
2023-04-07T05:16:27.947Z,4.10
2023-04-07T05:19:40.364Z,4.30
2023-04-07T05:22:51.192Z,3.95
2023-04-07T05:26:00.287Z,3.95
2023-04-07T05:29:04.666Z,4.15
2023-04-07T05:32:08.184Z,4.05
2023-04-07T05:35:13.833Z,4.57
2023-04-07T05:38:27.051Z,4.00
2023-04-07T05:41:46.234Z,3.80
2023-04-07T05:45:09.712Z,3.90
2023-04-07T05:48:18.212Z,4.18
2023-04-07T05:51:23.976Z,4.60
2023-04-07T05:54:32.493Z,4.07
2023-04-07T05:57:43.912Z,4.70
2023-04-07T06:04:07.760Z,4.20
2023-04-07T06:07:33.674Z,4.30
2023-04-07T06:10:39.696Z,3.97
2023-04-07T06:13:42.350Z,4.10
2023-04-07T06:16:45.203Z,4.30
2023-04-07T06:19:51.289Z,4.28
2023-04-07T06:26:13.080Z,4.07
2023-04-07T06:29:24.424Z,4.05
2023-04-07T06:32:42.486Z,4.38
2023-04-07T06:35:45.947Z,4.28
2023-04-07T06:38:51.105Z,4.32
2023-04-07T06:42:03.399Z,4.47
2023-04-07T06:45:13.811Z,4.60
2023-04-07T06:48:19.427Z,4.22
2023-04-07T06:51:22.412Z,4.15
2023-04-07T06:54:26.806Z,4.70
2023-04-07T06:57:30.924Z,5.05
2023-04-07T07:00:36.854Z,4.55
2023-04-07T07:03:41.818Z,4.68
2023-04-07T07:06:44.972Z,5.55
2023-04-07T07:09:48.996Z,5.45
2023-04-07T07:13:00.693Z,5.30
2023-04-07T07:16:06.651Z,4.67
2023-04-07T07:19:12.276Z,4.88
2023-04-07T07:22:16.073Z,5.00
2023-04-07T07:25:24.147Z,5.10
2023-04-07T07:28:36.712Z,5.75
2023-04-07T07:31:43.577Z,5.55
2023-04-07T07:34:47.744Z,5.28
2023-04-07T07:37:52.030Z,5.53
2023-04-07T07:40:56.397Z,5.65
2023-04-07T07:44:01.355Z,5.15
2023-04-07T07:47:12.172Z,5.10
2023-04-07T07:50:16.103Z,5.70
2023-04-07T07:53:23.504Z,5.82
2023-04-07T07:56:29.956Z,5.33
2023-04-07T07:59:33.793Z,5.18
2023-04-07T08:02:48.131Z,5.10
2023-04-07T08:05:56.404Z,5.40
2023-04-07T08:09:01.357Z,5.55
2023-04-07T08:12:06.399Z,5.10
2023-04-07T08:15:13.583Z,5.47
2023-04-07T08:18:27.477Z,4.93
2023-04-07T08:21:39.152Z,5.65
2023-04-07T08:24:44.707Z,5.38
2023-04-07T08:27:51.538Z,5.70
2023-04-07T08:31:05.008Z,5.22
2023-04-07T08:34:19.028Z,5.22
2023-04-07T08:37:24.314Z,5.57
2023-04-07T08:40:27.765Z,5.35
2023-04-07T08:43:43.291Z,5.72
2023-04-07T08:46:58.041Z,5.43
2023-04-07T08:50:13.025Z,5.60
2023-04-07T08:53:24.929Z,5.50
2023-04-07T08:56:29.892Z,5.00
2023-04-07T08:59:36.227Z,4.87
2023-04-07T09:02:43.642Z,5.47
2023-04-07T09:05:52.000Z,5.28
2023-04-07T09:09:03.807Z,4.72
2023-04-07T09:12:16.000Z,4.90
2023-04-07T09:15:24.698Z,4.50
2023-04-07T09:18:28.691Z,4.93
2023-04-07T09:21:54.466Z,4.83
2023-04-07T09:25:17.097Z,5.03
2023-04-07T09:29:03.323Z,4.80
2023-04-07T09:32:16.270Z,5.03
2023-04-07T09:35:25.933Z,5.00
2023-04-07T09:38:40.881Z,4.90
2023-04-07T09:41:48.240Z,4.78
2023-04-07T09:44:54.953Z,4.70
2023-04-07T09:48:00.248Z,4.97
2023-04-07T09:51:21.940Z,4.63
2023-04-07T09:54:44.877Z,4.57
2023-04-07T09:57:49.296Z,4.32
2023-04-07T10:01:04.648Z,4.63
2023-04-07T10:04:09.064Z,4.90
2023-04-07T10:07:13.734Z,4.72
2023-04-07T10:10:19.019Z,4.60
2023-04-07T10:13:24.258Z,4.63
2023-04-07T10:16:30.833Z,4.30
2023-04-07T10:19:42.701Z,4.35
2023-04-07T10:22:55.244Z,5.03
2023-04-07T10:26:09.985Z,4.67
2023-04-07T10:29:16.500Z,4.80
2023-04-07T10:32:27.700Z,4.90
2023-04-07T10:36:09.198Z,4.30
2023-04-07T10:39:26.002Z,4.70
2023-04-07T10:42:44.080Z,4.97
2023-04-07T10:45:49.348Z,4.85
2023-04-07T10:49:14.723Z,4.97
2023-04-07T10:52:33.152Z,4.85
2023-04-07T10:56:00.519Z,4.90
2023-04-07T10:59:23.007Z,4.80
2023-04-07T11:02:35.277Z,4.80
2023-04-07T11:05:43.478Z,4.70
2023-04-07T11:08:53.540Z,5.10
2023-04-07T11:12:04.963Z,5.88
2023-04-07T11:15:28.431Z,4.93
2023-04-07T11:18:39.530Z,5.15
2023-04-07T11:21:44.493Z,4.60
2023-04-07T11:28:14.618Z,4.78
2023-04-07T11:31:50.652Z,5.40
2023-04-07T11:34:55.971Z,4.93
2023-04-07T11:38:06.469Z,4.70
2023-04-07T11:41:30.406Z,4.57
2023-04-07T11:44:36.360Z,4.95
2023-04-07T11:47:49.521Z,4.90
2023-04-07T11:50:57.676Z,5.72
2023-04-07T11:54:14.034Z,5.97
2023-04-07T11:57:30.483Z,5.30
2023-04-07T12:00:35.220Z,5.03
2023-04-07T12:03:40.494Z,5.50
2023-04-07T12:06:45.998Z,5.30
2023-04-07T12:09:49.417Z,5.53
2023-04-07T12:12:56.318Z,5.22
2023-04-07T12:16:10.962Z,5.63
2023-04-07T12:19:17.374Z,5.70
2023-04-07T12:22:32.373Z,5.50
2023-04-07T12:25:46.454Z,5.70
2023-04-07T12:28:52.119Z,5.55
2023-04-07T12:31:55.668Z,5.75
2023-04-07T12:35:00.128Z,5.33
2023-04-07T12:38:03.538Z,5.63
2023-04-07T12:41:11.066Z,5.10
2023-04-07T12:44:15.591Z,4.82
2023-04-07T12:47:26.855Z,5.60
2023-04-07T12:50:33.296Z,5.32
2023-04-07T12:53:44.849Z,5.38
2023-04-07T12:56:48.522Z,5.18
2023-04-07T13:00:00.898Z,5.17
2023-04-07T13:03:05.478Z,5.88
2023-04-07T13:06:11.782Z,5.22
2023-04-07T13:09:20.050Z,5.07
2023-04-07T13:12:26.309Z,5.67
2023-04-07T13:15:38.722Z,4.30
2023-04-07T13:18:45.240Z,4.20
2023-04-07T13:21:49.444Z,4.13
2023-04-07T13:24:52.198Z,4.60
2023-04-07T13:28:05.221Z,4.00
2023-04-07T13:31:10.243Z,3.80
2023-04-07T13:34:16.460Z,3.85
2023-04-07T13:37:28.317Z,3.73
2023-04-07T13:40:33.069Z,3.92
2023-04-07T13:43:38.288Z,3.72
2023-04-07T13:46:44.305Z,3.92
2023-04-07T13:49:56.996Z,3.77
2023-04-07T13:53:08.792Z,3.75
2023-04-07T13:56:15.392Z,3.80
2023-04-07T13:59:30.958Z,4.18
2023-04-07T14:09:10.820Z,4.10
2023-04-07T14:12:22.051Z,4.03
2023-04-07T14:15:28.590Z,3.90
2023-04-07T14:18:34.117Z,3.85
2023-04-07T14:21:39.877Z,5.03
2023-04-07T14:28:08.899Z,5.38
2023-04-07T14:31:21.628Z,4.50
2023-04-07T14:34:25.968Z,4.22
2023-04-07T14:37:40.035Z,5.13
2023-04-07T14:40:45.833Z,5.05
2023-04-07T14:43:55.149Z,4.63
2023-04-07T14:47:01.187Z,4.70
2023-04-07T14:50:13.083Z,5.30
2023-04-07T14:53:25.306Z,5.78
2023-04-07T14:56:31.646Z,4.20
2023-04-07T14:59:35.174Z,4.37
2023-04-07T15:02:48.576Z,3.85
2023-04-07T15:05:51.354Z,4.15
2023-04-07T15:08:54.164Z,4.13
2023-04-07T15:11:59.428Z,5.10
2023-04-07T15:15:06.216Z,4.60
2023-04-07T15:18:10.789Z,4.25
2023-04-07T15:21:19.089Z,4.00
2023-04-07T15:24:24.633Z,4.30
2023-04-07T15:27:38.210Z,3.90
2023-04-07T15:30:41.360Z,3.40
2023-04-07T15:37:14.886Z,4.18
2023-04-07T15:40:20.261Z,3.72
2023-04-07T15:43:25.234Z,4.00
2023-04-07T15:46:36.292Z,3.20
2023-04-07T15:49:39.473Z,3.40
2023-04-07T15:52:46.666Z,3.90
2023-04-07T15:55:50.696Z,4.63
2023-04-07T15:58:57.322Z,4.50
2023-04-07T16:02:03.884Z,5.95
2023-04-07T16:05:17.350Z,4.80
2023-04-07T16:08:20.535Z,4.97
2023-04-07T16:11:22.865Z,4.68
2023-04-07T16:14:31.923Z,4.70
2023-04-07T16:17:38.700Z,5.65
2023-04-07T16:20:48.586Z,5.10
2023-04-07T16:23:51.162Z,4.85
2023-04-07T16:27:00.676Z,4.60
2023-04-07T16:30:10.164Z,4.43
2023-04-07T16:33:15.599Z,4.75
2023-04-07T16:36:21.360Z,4.88
2023-04-07T16:39:32.625Z,5.77
2023-04-07T16:42:39.523Z,7.65
2023-04-07T16:45:44.853Z,4.57
2023-04-07T16:48:50.387Z,4.32
2023-04-07T16:51:55.140Z,4.13
2023-04-07T16:55:03.237Z,4.32
2023-04-07T16:58:08.302Z,4.60
2023-04-07T17:01:14.400Z,4.47
2023-04-07T17:04:17.189Z,4.55
2023-04-07T17:07:22.695Z,5.18
2023-04-07T17:10:27.575Z,5.25
2023-04-07T17:13:38.339Z,5.00
2023-04-07T17:16:43.741Z,5.15
2023-04-07T17:19:47.712Z,5.75
2023-04-07T17:22:52.115Z,5.38
2023-04-07T17:25:59.486Z,5.20
2023-04-07T17:29:11.563Z,5.22
2023-04-07T17:32:24.999Z,4.90
2023-04-07T17:35:30.839Z,4.53
2023-04-07T17:38:42.718Z,5.15
2023-04-07T17:41:55.339Z,4.93
2023-04-07T17:45:00.633Z,5.10
2023-04-07T17:48:06.711Z,5.68
2023-04-07T17:51:14.305Z,5.07
2023-04-07T17:54:19.357Z,4.70
2023-04-07T17:57:25.514Z,5.13
2023-04-07T18:00:31.032Z,5.10
2023-04-07T18:03:36.044Z,5.30
2023-04-07T18:06:49.404Z,5.57
2023-04-07T18:13:20.105Z,5.60
2023-04-07T18:16:31.342Z,6.50
2023-04-07T18:19:44.218Z,6.07
2023-04-07T18:22:52.427Z,5.97
2023-04-07T18:25:57.920Z,5.57
2023-04-07T18:29:04.242Z,5.97
2023-04-07T18:32:09.849Z,5.90
2023-04-07T18:35:15.624Z,6.00
2023-04-07T18:38:20.984Z,6.40
2023-04-07T18:41:25.903Z,7.10
2023-04-07T18:44:41.027Z,7.05
2023-04-07T18:47:46.925Z,7.00
2023-04-07T18:51:05.703Z,6.75
2023-04-07T18:54:18.036Z,6.45
2023-04-07T18:57:24.256Z,7.15
2023-04-07T19:00:27.422Z,6.82
2023-04-07T19:03:30.742Z,7.18
2023-04-07T19:06:40.167Z,7.28
2023-04-07T19:09:45.912Z,8.40
2023-04-07T19:12:51.539Z,9.70
2023-04-07T19:16:02.962Z,8.85
2023-04-07T19:19:08.780Z,9.67
2023-04-07T19:22:13.370Z,9.27
2023-04-07T19:25:18.559Z,9.80
2023-04-07T19:28:23.372Z,8.68
2023-04-07T19:31:27.553Z,9.13
2023-04-07T19:34:30.578Z,8.10
2023-04-07T19:37:39.839Z,8.50
2023-04-07T19:40:45.396Z,8.37
2023-04-07T19:47:14.508Z,9.57
2023-04-07T19:50:20.541Z,9.13
2023-04-07T19:53:25.363Z,10.13
2023-04-07T19:56:30.719Z,9.65
2023-04-07T19:59:36.772Z,9.63
2023-04-07T20:02:40.404Z,8.98
2023-04-07T20:05:46.493Z,8.32
2023-04-07T20:08:56.733Z,8.18
2023-04-07T20:12:02.175Z,8.43
2023-04-07T20:15:11.927Z,7.88
2023-04-07T20:18:21.149Z,8.60
2023-04-07T20:24:51.082Z,12.05
2023-04-07T20:28:08.055Z,11.52
2023-04-07T20:31:11.788Z,10.68
2023-04-07T20:34:16.120Z,10.27
2023-04-07T20:37:29.353Z,9.60
2023-04-07T20:40:37.610Z,9.63
2023-04-07T20:47:21.911Z,9.05
2023-04-07T20:50:37.857Z,8.63
2023-04-07T20:53:41.970Z,9.43
2023-04-07T20:56:47.534Z,9.57
2023-04-07T20:59:58.313Z,8.95
2023-04-07T21:03:12.389Z,8.63
2023-04-07T21:06:19.291Z,8.85
2023-04-07T21:09:23.584Z,9.48
2023-04-07T21:12:26.964Z,9.52
2023-04-07T21:15:39.698Z,9.70
2023-04-07T21:18:50.926Z,9.05
2023-04-07T21:21:57.154Z,9.10
2023-04-07T21:25:03.176Z,8.97
2023-04-07T21:28:10.014Z,8.63
2023-04-07T21:31:37.202Z,9.80
2023-04-07T21:34:46.642Z,10.98
2023-04-07T21:37:56.459Z,9.68
2023-04-07T21:41:08.287Z,8.60
2023-04-07T21:44:13.378Z,7.47
2023-04-07T21:47:29.084Z,7.03
2023-04-07T21:50:34.366Z,7.00
2023-04-07T21:53:41.114Z,6.40
2023-04-07T21:56:45.771Z,6.43
2023-04-07T21:59:47.993Z,6.30
2023-04-07T22:06:19.656Z,6.00
2023-04-07T22:09:24.818Z,5.63
2023-04-07T22:12:28.516Z,5.90
2023-04-07T22:15:33.575Z,5.82
2023-04-07T22:18:38.413Z,5.30
2023-04-07T22:21:43.058Z,5.70
2023-04-07T22:28:16.683Z,5.60
2023-04-07T22:31:22.439Z,5.28
2023-04-07T22:34:28.380Z,5.38
2023-04-07T22:37:41.631Z,5.50
2023-04-07T22:40:49.638Z,5.60
2023-04-07T22:47:21.238Z,6.13
2023-04-07T22:50:27.064Z,6.33
2023-04-07T22:53:30.192Z,6.05
2023-04-07T22:56:34.872Z,6.05
2023-04-07T22:59:50.107Z,6.00
2023-04-07T23:06:13.254Z,5.70
2023-04-07T23:09:18.812Z,5.78
2023-04-07T23:12:29.761Z,5.78
2023-04-07T23:15:40.116Z,6.07
2023-04-07T23:18:46.000Z,6.22
2023-04-07T23:21:50.968Z,6.33
2023-04-07T23:24:53.259Z,6.57
2023-04-07T23:27:54.912Z,6.45
2023-04-07T23:31:00.373Z,6.07
2023-04-07T23:34:05.308Z,5.63
2023-04-07T23:37:14.261Z,6.47
2023-04-07T23:40:19.615Z,6.18
2023-04-07T23:43:24.001Z,5.57
2023-04-07T23:46:29.339Z,5.78
2023-04-07T23:49:32.942Z,6.22
2023-04-07T23:52:43.813Z,5.93
2023-04-07T23:55:51.226Z,5.82
2023-04-07T23:59:04.167Z,5.97
